26°C Temp
15°C Dewpoint
51% Humidity
Temperature
8 KM/H
5 MPH
4 KTS
240°
West South
West

Wind Speed
Partly Cloudy
Conditions
Pressure 1009.82 (hPa) - 29.82 (in)
Visibility 6.0 (mi) - 9.7 (km)

Current Conditions
LIMP
Location 40(km)
Metar :LIMP 161550Z 24004KT 9999 FEW030 26/15 Q1010
Sun 16th June 16:50 pm

Airport
  Metar Aviation API Data Provided by https://www.checkwx.com/ PHP scripts by weather34.com ©2024